sensor_id;sensor_type;location;lat;lon;timestamp;P1;durP1;ratioP1;P2;durP2;ratioP2
43413;SDS011;29013;49.676;8.606;2023-02-28T00:04:30;2.13;;;1.31;;
43413;SDS011;29013;49.676;8.606;2023-02-28T00:10:13;1.66;;;1.41;;
43413;SDS011;29013;49.676;8.606;2023-02-28T00:15:35;1.89;;;1.42;;
43413;SDS011;29013;49.676;8.606;2023-02-28T00:20:56;1.9;;;1.62;;
43413;SDS011;29013;49.676;8.606;2023-02-28T00:26:17;1.78;;;1.48;;
43413;SDS011;29013;49.676;8.606;2023-02-28T00:31:55;2.43;;;1.64;;
43413;SDS011;29013;49.676;8.606;2023-02-28T00:37:19;2.46;;;1.56;;
43413;SDS011;29013;49.676;8.606;2023-02-28T00:42:42;2.84;;;1.6;;
43413;SDS011;29013;49.676;8.606;2023-02-28T00:48:05;2.1;;;1.65;;
43413;SDS011;29013;49.676;8.606;2023-02-28T00:53:28;2.68;;;1.74;;
43413;SDS011;29013;49.676;8.606;2023-02-28T00:58:51;1.83;;;1.75;;
43413;SDS011;29013;49.676;8.606;2023-02-28T01:04:33;2.56;;;1.72;;
43413;SDS011;29013;49.676;8.606;2023-02-28T01:09:53;2.0;;;1.59;;
43413;SDS011;29013;49.676;8.606;2023-02-28T01:15:18;2.71;;;1.67;;
43413;SDS011;29013;49.676;8.606;2023-02-28T01:20:41;2.48;;;1.69;;
43413;SDS011;29013;49.676;8.606;2023-02-28T01:26:07;2.84;;;1.65;;
43413;SDS011;29013;49.676;8.606;2023-02-28T01:31:30;2.61;;;1.88;;
43413;SDS011;29013;49.676;8.606;2023-02-28T01:36:49;4.94;;;1.71;;
43413;SDS011;29013;49.676;8.606;2023-02-28T01:42:13;2.78;;;1.64;;
43413;SDS011;29013;49.676;8.606;2023-02-28T01:47:39;2.22;;;1.77;;
43413;SDS011;29013;49.676;8.606;2023-02-28T01:53:04;4.06;;;2.02;;
43413;SDS011;29013;49.676;8.606;2023-02-28T01:58:27;2.86;;;1.98;;
43413;SDS011;29013;49.676;8.606;2023-02-28T02:03:51;2.47;;;1.94;;
43413;SDS011;29013;49.676;8.606;2023-02-28T02:09:14;2.03;;;1.79;;
43413;SDS011;29013;49.676;8.606;2023-02-28T02:14:43;3.43;;;1.86;;
43413;SDS011;29013;49.676;8.606;2023-02-28T02:20:31;2.63;;;1.95;;
43413;SDS011;29013;49.676;8.606;2023-02-28T02:26:10;2.52;;;1.73;;
43413;SDS011;29013;49.676;8.606;2023-02-28T02:37:33;1.7;;;1.6;;
43413;SDS011;29013;49.676;8.606;2023-02-28T02:42:52;1.67;;;1.65;;
43413;SDS011;29013;49.676;8.606;2023-02-28T02:48:11;2.2;;;1.56;;
43413;SDS011;29013;49.676;8.606;2023-02-28T02:53:35;1.75;;;1.61;;
43413;SDS011;29013;49.676;8.606;2023-02-28T02:58:51;2.6;;;1.82;;
43413;SDS011;29013;49.676;8.606;2023-02-28T03:04:16;1.89;;;1.8;;
43413;SDS011;29013;49.676;8.606;2023-02-28T03:09:35;2.86;;;2.0;;
43413;SDS011;29013;49.676;8.606;2023-02-28T03:14:59;2.7;;;1.92;;
43413;SDS011;29013;49.676;8.606;2023-02-28T03:20:18;2.33;;;1.63;;
43413;SDS011;29013;49.676;8.606;2023-02-28T03:25:37;2.52;;;1.7;;
43413;SDS011;29013;49.676;8.606;2023-02-28T03:30:56;2.67;;;1.78;;
43413;SDS011;29013;49.676;8.606;2023-02-28T03:36:19;2.81;;;1.83;;
43413;SDS011;29013;49.676;8.606;2023-02-28T03:41:43;3.24;;;1.64;;
43413;SDS011;29013;49.676;8.606;2023-02-28T03:47:08;2.44;;;1.69;;
43413;SDS011;29013;49.676;8.606;2023-02-28T03:52:30;1.83;;;1.71;;
43413;SDS011;29013;49.676;8.606;2023-02-28T03:57:56;1.86;;;1.49;;
43413;SDS011;29013;49.676;8.606;2023-02-28T04:03:16;2.91;;;1.7;;
43413;SDS011;29013;49.676;8.606;2023-02-28T04:08:33;2.93;;;1.76;;
43413;SDS011;29013;49.676;8.606;2023-02-28T04:14:09;2.16;;;1.73;;
43413;SDS011;29013;49.676;8.606;2023-02-28T04:19:26;3.27;;;1.99;;
43413;SDS011;29013;49.676;8.606;2023-02-28T04:24:44;3.64;;;2.11;;
43413;SDS011;29013;49.676;8.606;2023-02-28T04:30:10;2.57;;;1.98;;
43413;SDS011;29013;49.676;8.606;2023-02-28T04:35:29;3.11;;;1.91;;
43413;SDS011;29013;49.676;8.606;2023-02-28T04:40:56;2.34;;;2.0;;
43413;SDS011;29013;49.676;8.606;2023-02-28T04:46:20;4.9;;;1.98;;
43413;SDS011;29013;49.676;8.606;2023-02-28T04:51:42;2.55;;;2.03;;
43413;SDS011;29013;49.676;8.606;2023-02-28T04:57:01;2.5;;;1.93;;
43413;SDS011;29013;49.676;8.606;2023-02-28T05:02:25;3.86;;;2.11;;
43413;SDS011;29013;49.676;8.606;2023-02-28T05:07:48;3.4;;;2.39;;
43413;SDS011;29013;49.676;8.606;2023-02-28T05:13:08;3.69;;;2.06;;
43413;SDS011;29013;49.676;8.606;2023-02-28T05:18:27;3.59;;;2.27;;
43413;SDS011;29013;49.676;8.606;2023-02-28T05:23:45;2.78;;;2.05;;
43413;SDS011;29013;49.676;8.606;2023-02-28T05:29:08;2.6;;;2.16;;
43413;SDS011;29013;49.676;8.606;2023-02-28T05:34:25;3.06;;;2.58;;
43413;SDS011;29013;49.676;8.606;2023-02-28T05:39:46;3.18;;;2.57;;
43413;SDS011;29013;49.676;8.606;2023-02-28T05:45:11;2.62;;;2.15;;
43413;SDS011;29013;49.676;8.606;2023-02-28T05:50:34;2.77;;;2.22;;
43413;SDS011;29013;49.676;8.606;2023-02-28T05:55:52;2.85;;;2.11;;
43413;SDS011;29013;49.676;8.606;2023-02-28T06:01:21;2.63;;;1.98;;
43413;SDS011;29013;49.676;8.606;2023-02-28T06:06:39;2.6;;;2.24;;
43413;SDS011;29013;49.676;8.606;2023-02-28T06:11:58;2.66;;;2.22;;
43413;SDS011;29013;49.676;8.606;2023-02-28T06:17:17;2.35;;;2.3;;
43413;SDS011;29013;49.676;8.606;2023-02-28T06:23:06;3.13;;;2.41;;
43413;SDS011;29013;49.676;8.606;2023-02-28T06:28:29;3.28;;;2.59;;
43413;SDS011;29013;49.676;8.606;2023-02-28T06:33:51;3.32;;;2.75;;
43413;SDS011;29013;49.676;8.606;2023-02-28T06:39:17;3.75;;;2.56;;
43413;SDS011;29013;49.676;8.606;2023-02-28T06:44:41;2.65;;;2.15;;
43413;SDS011;29013;49.676;8.606;2023-02-28T06:50:04;3.42;;;2.29;;
43413;SDS011;29013;49.676;8.606;2023-02-28T06:55:27;3.25;;;1.98;;
43413;SDS011;29013;49.676;8.606;2023-02-28T07:00:52;2.99;;;1.79;;
43413;SDS011;29013;49.676;8.606;2023-02-28T07:06:11;2.65;;;2.52;;
43413;SDS011;29013;49.676;8.606;2023-02-28T07:11:34;3.31;;;2.32;;
43413;SDS011;29013;49.676;8.606;2023-02-28T07:16:57;2.56;;;2.33;;
43413;SDS011;29013;49.676;8.606;2023-02-28T07:22:19;3.64;;;2.44;;
43413;SDS011;29013;49.676;8.606;2023-02-28T07:27:44;2.74;;;2.13;;
43413;SDS011;29013;49.676;8.606;2023-02-28T07:33:05;2.69;;;1.89;;
43413;SDS011;29013;49.676;8.606;2023-02-28T07:38:30;5.4;;;2.07;;
43413;SDS011;29013;49.676;8.606;2023-02-28T07:43:52;2.14;;;1.89;;
43413;SDS011;29013;49.676;8.606;2023-02-28T07:49:09;3.22;;;2.02;;
43413;SDS011;29013;49.676;8.606;2023-02-28T07:54:34;3.19;;;2.19;;
43413;SDS011;29013;49.676;8.606;2023-02-28T07:59:59;4.27;;;2.1;;
43413;SDS011;29013;49.676;8.606;2023-02-28T08:05:20;3.62;;;2.33;;
43413;SDS011;29013;49.676;8.606;2023-02-28T08:10:46;2.58;;;1.71;;
43413;SDS011;29013;49.676;8.606;2023-02-28T08:16:10;3.61;;;2.29;;
43413;SDS011;29013;49.676;8.606;2023-02-28T08:21:33;3.01;;;2.1;;
43413;SDS011;29013;49.676;8.606;2023-02-28T08:27:16;4.7;;;2.55;;
43413;SDS011;29013;49.676;8.606;2023-02-28T08:32:37;3.67;;;2.41;;
43413;SDS011;29013;49.676;8.606;2023-02-28T08:38:16;4.34;;;2.48;;
43413;SDS011;29013;49.676;8.606;2023-02-28T08:43:39;2.85;;;2.43;;
43413;SDS011;29013;49.676;8.606;2023-02-28T08:49:03;4.99;;;2.56;;
43413;SDS011;29013;49.676;8.606;2023-02-28T08:54:26;3.42;;;2.71;;
43413;SDS011;29013;49.676;8.606;2023-02-28T08:59:50;4.69;;;2.65;;
43413;SDS011;29013;49.676;8.606;2023-02-28T09:05:15;3.82;;;2.8;;
43413;SDS011;29013;49.676;8.606;2023-02-28T09:10:34;3.75;;;2.95;;
43413;SDS011;29013;49.676;8.606;2023-02-28T09:16:00;4.36;;;3.21;;
43413;SDS011;29013;49.676;8.606;2023-02-28T09:21:24;4.38;;;3.02;;
43413;SDS011;29013;49.676;8.606;2023-02-28T09:26:43;2.91;;;2.66;;
43413;SDS011;29013;49.676;8.606;2023-02-28T09:32:05;5.01;;;3.39;;
43413;SDS011;29013;49.676;8.606;2023-02-28T09:37:54;5.29;;;3.61;;
43413;SDS011;29013;49.676;8.606;2023-02-28T09:43:20;4.24;;;3.19;;
43413;SDS011;29013;49.676;8.606;2023-02-28T09:48:41;4.36;;;3.04;;
43413;SDS011;29013;49.676;8.606;2023-02-28T09:54:04;3.75;;;3.16;;
43413;SDS011;29013;49.676;8.606;2023-02-28T09:59:31;4.79;;;2.86;;
43413;SDS011;29013;49.676;8.606;2023-02-28T10:05:18;5.38;;;3.95;;
43413;SDS011;29013;49.676;8.606;2023-02-28T10:10:37;4.69;;;3.69;;
43413;SDS011;29013;49.676;8.606;2023-02-28T10:16:41;6.11;;;4.19;;
43413;SDS011;29013;49.676;8.606;2023-02-28T10:22:05;6.72;;;3.65;;
43413;SDS011;29013;49.676;8.606;2023-02-28T10:27:32;5.58;;;3.6;;
43413;SDS011;29013;49.676;8.606;2023-02-28T10:32:51;5.79;;;3.67;;
43413;SDS011;29013;49.676;8.606;2023-02-28T10:38:17;5.4;;;3.72;;
43413;SDS011;29013;49.676;8.606;2023-02-28T10:43:36;6.72;;;3.93;;
43413;SDS011;29013;49.676;8.606;2023-02-28T10:49:25;6.49;;;4.64;;
43413;SDS011;29013;49.676;8.606;2023-02-28T10:54:45;6.05;;;4.34;;
43413;SDS011;29013;49.676;8.606;2023-02-28T11:00:12;6.03;;;3.93;;
43413;SDS011;29013;49.676;8.606;2023-02-28T11:05:35;5.9;;;4.02;;
43413;SDS011;29013;49.676;8.606;2023-02-28T11:11:20;5.03;;;4.29;;
43413;SDS011;29013;49.676;8.606;2023-02-28T11:16:41;4.33;;;3.71;;
43413;SDS011;29013;49.676;8.606;2023-02-28T11:22:06;4.88;;;3.79;;
43413;SDS011;29013;49.676;8.606;2023-02-28T11:27:46;6.24;;;4.12;;
43413;SDS011;29013;49.676;8.606;2023-02-28T11:38:45;6.27;;;4.37;;
43413;SDS011;29013;49.676;8.606;2023-02-28T11:44:08;5.54;;;4.16;;
43413;SDS011;29013;49.676;8.606;2023-02-28T11:50:12;7.07;;;4.68;;
43413;SDS011;29013;49.676;8.606;2023-02-28T11:55:35;6.82;;;4.74;;
43413;SDS011;29013;49.676;8.606;2023-02-28T12:01:15;6.19;;;4.56;;
43413;SDS011;29013;49.676;8.606;2023-02-28T12:06:38;5.55;;;4.36;;
43413;SDS011;29013;49.676;8.606;2023-02-28T12:12:05;6.1;;;4.41;;
43413;SDS011;29013;49.676;8.606;2023-02-28T12:17:32;6.33;;;4.49;;
43413;SDS011;29013;49.676;8.606;2023-02-28T12:23:03;7.08;;;4.41;;
43413;SDS011;29013;49.676;8.606;2023-02-28T12:28:54;6.45;;;4.93;;
43413;SDS011;29013;49.676;8.606;2023-02-28T12:34:13;6.77;;;4.47;;
43413;SDS011;29013;49.676;8.606;2023-02-28T12:39:34;7.26;;;4.61;;
43413;SDS011;29013;49.676;8.606;2023-02-28T12:44:57;7.25;;;4.56;;
43413;SDS011;29013;49.676;8.606;2023-02-28T12:50:19;6.07;;;4.64;;
43413;SDS011;29013;49.676;8.606;2023-02-28T12:55:38;9.75;;;4.55;;
43413;SDS011;29013;49.676;8.606;2023-02-28T13:01:23;6.62;;;4.37;;
43413;SDS011;29013;49.676;8.606;2023-02-28T13:06:50;6.56;;;4.6;;
43413;SDS011;29013;49.676;8.606;2023-02-28T13:12:15;6.52;;;4.47;;
43413;SDS011;29013;49.676;8.606;2023-02-28T13:17:39;7.3;;;4.53;;
43413;SDS011;29013;49.676;8.606;2023-02-28T13:23:05;8.46;;;4.89;;
43413;SDS011;29013;49.676;8.606;2023-02-28T13:34:46;6.71;;;4.84;;
43413;SDS011;29013;49.676;8.606;2023-02-28T13:40:29;6.15;;;4.43;;
43413;SDS011;29013;49.676;8.606;2023-02-28T13:46:06;6.6;;;4.43;;
43413;SDS011;29013;49.676;8.606;2023-02-28T13:51:39;6.29;;;4.45;;
43413;SDS011;29013;49.676;8.606;2023-02-28T13:57:11;6.58;;;4.71;;
43413;SDS011;29013;49.676;8.606;2023-02-28T14:02:44;9.78;;;4.55;;
43413;SDS011;29013;49.676;8.606;2023-02-28T14:08:10;5.64;;;4.49;;
43413;SDS011;29013;49.676;8.606;2023-02-28T14:13:40;5.85;;;4.21;;
43413;SDS011;29013;49.676;8.606;2023-02-28T14:19:05;6.55;;;4.57;;
43413;SDS011;29013;49.676;8.606;2023-02-28T14:24:32;7.35;;;4.82;;
43413;SDS011;29013;49.676;8.606;2023-02-28T14:36:03;6.02;;;4.63;;
43413;SDS011;29013;49.676;8.606;2023-02-28T14:41:30;6.2;;;4.51;;
43413;SDS011;29013;49.676;8.606;2023-02-28T14:46:52;7.51;;;4.94;;
43413;SDS011;29013;49.676;8.606;2023-02-28T14:52:12;7.88;;;4.49;;
43413;SDS011;29013;49.676;8.606;2023-02-28T14:57:38;7.75;;;4.94;;
43413;SDS011;29013;49.676;8.606;2023-02-28T15:02:59;7.6;;;4.95;;
43413;SDS011;29013;49.676;8.606;2023-02-28T15:08:23;7.11;;;4.72;;
43413;SDS011;29013;49.676;8.606;2023-02-28T15:13:49;7.1;;;4.66;;
43413;SDS011;29013;49.676;8.606;2023-02-28T15:19:13;8.55;;;4.32;;
43413;SDS011;29013;49.676;8.606;2023-02-28T15:24:38;9.15;;;4.59;;
43413;SDS011;29013;49.676;8.606;2023-02-28T15:30:04;8.35;;;4.42;;
43413;SDS011;29013;49.676;8.606;2023-02-28T15:35:30;6.56;;;4.67;;
43413;SDS011;29013;49.676;8.606;2023-02-28T15:40:49;6.1;;;4.2;;
43413;SDS011;29013;49.676;8.606;2023-02-28T15:46:07;7.74;;;4.57;;
43413;SDS011;29013;49.676;8.606;2023-02-28T15:51:26;10.24;;;5.17;;
43413;SDS011;29013;49.676;8.606;2023-02-28T15:56:44;7.6;;;5.11;;
43413;SDS011;29013;49.676;8.606;2023-02-28T16:02:11;6.39;;;4.34;;
43413;SDS011;29013;49.676;8.606;2023-02-28T16:07:51;8.11;;;5.76;;
43413;SDS011;29013;49.676;8.606;2023-02-28T16:13:12;7.39;;;4.45;;
43413;SDS011;29013;49.676;8.606;2023-02-28T16:19:01;8.51;;;4.72;;
43413;SDS011;29013;49.676;8.606;2023-02-28T16:24:26;8.82;;;4.86;;
43413;SDS011;29013;49.676;8.606;2023-02-28T16:29:51;6.28;;;4.44;;
43413;SDS011;29013;49.676;8.606;2023-02-28T16:35:15;5.41;;;4.08;;
43413;SDS011;29013;49.676;8.606;2023-02-28T16:40:39;6.13;;;4.42;;
43413;SDS011;29013;49.676;8.606;2023-02-28T16:46:04;9.92;;;6.98;;
43413;SDS011;29013;49.676;8.606;2023-02-28T16:51:59;8.42;;;5.72;;
43413;SDS011;29013;49.676;8.606;2023-02-28T16:57:22;7.64;;;5.38;;
43413;SDS011;29013;49.676;8.606;2023-02-28T17:02:47;9.54;;;6.3;;
43413;SDS011;29013;49.676;8.606;2023-02-28T17:08:11;8.67;;;5.4;;
43413;SDS011;29013;49.676;8.606;2023-02-28T17:13:37;7.07;;;4.9;;
43413;SDS011;29013;49.676;8.606;2023-02-28T17:19:00;11.39;;;6.93;;
43413;SDS011;29013;49.676;8.606;2023-02-28T17:24:23;20.1;;;9.66;;
43413;SDS011;29013;49.676;8.606;2023-02-28T17:29:41;12.5;;;7.71;;
43413;SDS011;29013;49.676;8.606;2023-02-28T17:35:00;11.26;;;6.66;;
43413;SDS011;29013;49.676;8.606;2023-02-28T17:40:23;8.59;;;5.36;;
43413;SDS011;29013;49.676;8.606;2023-02-28T17:46:14;7.96;;;5.52;;
43413;SDS011;29013;49.676;8.606;2023-02-28T17:51:31;7.95;;;5.5;;
43413;SDS011;29013;49.676;8.606;2023-02-28T17:56:55;9.1;;;5.29;;
43413;SDS011;29013;49.676;8.606;2023-02-28T18:02:20;7.81;;;5.52;;
43413;SDS011;29013;49.676;8.606;2023-02-28T18:07:41;8.72;;;5.76;;
43413;SDS011;29013;49.676;8.606;2023-02-28T18:13:09;10.2;;;6.85;;
43413;SDS011;29013;49.676;8.606;2023-02-28T18:18:32;15.48;;;7.07;;
43413;SDS011;29013;49.676;8.606;2023-02-28T18:23:57;14.84;;;8.14;;
43413;SDS011;29013;49.676;8.606;2023-02-28T18:29:22;13.43;;;7.95;;
43413;SDS011;29013;49.676;8.606;2023-02-28T18:34:39;11.64;;;7.32;;
43413;SDS011;29013;49.676;8.606;2023-02-28T18:40:08;12.0;;;7.67;;
43413;SDS011;29013;49.676;8.606;2023-02-28T18:45:31;10.2;;;7.4;;
43413;SDS011;29013;49.676;8.606;2023-02-28T18:50:53;10.32;;;7.02;;
43413;SDS011;29013;49.676;8.606;2023-02-28T18:56:13;10.65;;;6.66;;
43413;SDS011;29013;49.676;8.606;2023-02-28T19:01:31;14.5;;;8.69;;
43413;SDS011;29013;49.676;8.606;2023-02-28T19:06:56;15.19;;;9.04;;
43413;SDS011;29013;49.676;8.606;2023-02-28T19:12:20;16.41;;;11.36;;
43413;SDS011;29013;49.676;8.606;2023-02-28T19:17:44;14.84;;;8.58;;
43413;SDS011;29013;49.676;8.606;2023-02-28T19:23:06;13.65;;;9.62;;
43413;SDS011;29013;49.676;8.606;2023-02-28T19:28:30;11.87;;;7.98;;
43413;SDS011;29013;49.676;8.606;2023-02-28T19:33:52;8.37;;;5.42;;
43413;SDS011;29013;49.676;8.606;2023-02-28T19:39:17;8.17;;;4.75;;
43413;SDS011;29013;49.676;8.606;2023-02-28T19:44:41;8.35;;;4.68;;
43413;SDS011;29013;49.676;8.606;2023-02-28T19:50:01;7.86;;;4.96;;
43413;SDS011;29013;49.676;8.606;2023-02-28T19:55:46;9.28;;;5.39;;
43413;SDS011;29013;49.676;8.606;2023-02-28T20:01:35;7.54;;;5.33;;
43413;SDS011;29013;49.676;8.606;2023-02-28T20:07:20;8.96;;;5.93;;
43413;SDS011;29013;49.676;8.606;2023-02-28T20:12:43;7.92;;;5.24;;
43413;SDS011;29013;49.676;8.606;2023-02-28T20:18:02;8.11;;;5.65;;
43413;SDS011;29013;49.676;8.606;2023-02-28T20:23:27;7.52;;;5.03;;
43413;SDS011;29013;49.676;8.606;2023-02-28T20:28:51;8.55;;;5.24;;
43413;SDS011;29013;49.676;8.606;2023-02-28T20:34:14;12.71;;;6.11;;
43413;SDS011;29013;49.676;8.606;2023-02-28T20:40:17;10.17;;;6.39;;
43413;SDS011;29013;49.676;8.606;2023-02-28T20:45:44;7.62;;;5.69;;
43413;SDS011;29013;49.676;8.606;2023-02-28T20:51:31;10.9;;;6.0;;
43413;SDS011;29013;49.676;8.606;2023-02-28T20:56:51;13.56;;;6.44;;
43413;SDS011;29013;49.676;8.606;2023-02-28T21:02:13;8.44;;;5.62;;
43413;SDS011;29013;49.676;8.606;2023-02-28T21:07:31;8.33;;;5.45;;
43413;SDS011;29013;49.676;8.606;2023-02-28T21:12:57;8.21;;;5.65;;
43413;SDS011;29013;49.676;8.606;2023-02-28T21:18:23;7.61;;;5.32;;
43413;SDS011;29013;49.676;8.606;2023-02-28T21:23:47;8.12;;;5.48;;
43413;SDS011;29013;49.676;8.606;2023-02-28T21:29:07;11.18;;;5.77;;
43413;SDS011;29013;49.676;8.606;2023-02-28T21:34:32;10.36;;;6.56;;
43413;SDS011;29013;49.676;8.606;2023-02-28T21:40:14;11.1;;;6.51;;
43413;SDS011;29013;49.676;8.606;2023-02-28T21:45:34;8.77;;;6.1;;
43413;SDS011;29013;49.676;8.606;2023-02-28T21:50:59;10.12;;;5.92;;
43413;SDS011;29013;49.676;8.606;2023-02-28T21:56:57;10.43;;;6.69;;
43413;SDS011;29013;49.676;8.606;2023-02-28T22:02:18;9.06;;;6.25;;
43413;SDS011;29013;49.676;8.606;2023-02-28T22:07:44;10.12;;;6.14;;
43413;SDS011;29013;49.676;8.606;2023-02-28T22:13:13;12.38;;;6.0;;
43413;SDS011;29013;49.676;8.606;2023-02-28T22:18:56;10.15;;;6.76;;
43413;SDS011;29013;49.676;8.606;2023-02-28T22:24:19;9.36;;;5.95;;
43413;SDS011;29013;49.676;8.606;2023-02-28T22:29:43;8.78;;;5.63;;
43413;SDS011;29013;49.676;8.606;2023-02-28T22:35:08;8.32;;;5.83;;
43413;SDS011;29013;49.676;8.606;2023-02-28T22:40:26;6.94;;;4.91;;
43413;SDS011;29013;49.676;8.606;2023-02-28T22:45:45;8.23;;;5.32;;
43413;SDS011;29013;49.676;8.606;2023-02-28T22:51:11;10.7;;;5.88;;
43413;SDS011;29013;49.676;8.606;2023-02-28T22:56:34;9.2;;;5.55;;
43413;SDS011;29013;49.676;8.606;2023-02-28T23:02:00;7.92;;;5.73;;
43413;SDS011;29013;49.676;8.606;2023-02-28T23:07:24;8.28;;;5.83;;
43413;SDS011;29013;49.676;8.606;2023-02-28T23:12:49;9.97;;;6.2;;
43413;SDS011;29013;49.676;8.606;2023-02-28T23:18:30;10.66;;;6.84;;
43413;SDS011;29013;49.676;8.606;2023-02-28T23:23:47;10.65;;;6.14;;
43413;SDS011;29013;49.676;8.606;2023-02-28T23:29:11;8.67;;;5.75;;
43413;SDS011;29013;49.676;8.606;2023-02-28T23:34:29;9.87;;;6.51;;
43413;SDS011;29013;49.676;8.606;2023-02-28T23:40:17;9.84;;;6.58;;
43413;SDS011;29013;49.676;8.606;2023-02-28T23:45:35;10.63;;;6.48;;
43413;SDS011;29013;49.676;8.606;2023-02-28T23:51:02;11.49;;;6.44;;
43413;SDS011;29013;49.676;8.606;2023-02-28T23:56:28;11.12;;;5.81;;
